Time;durP1;ratioP1;P1;durP2;ratioP2;P2;SDS_P1;SDS_P2;PMS_P1;PMS_P2;Temp;Humidity;BMP_temperature;BMP_pressure;BME280_temperature;BME280_humidity;BME280_pressure;Samples;Min_cycle;Max_cycle;Signal;HPM_P1;HPM_P2
2021/10/28 00:14:26;;;;;;;;;18.75;16.75;;;;;13.68;68.86;101647.28;4944130;28;45406;-60
2021/10/28 00:16:54;;;;;;;;;16.00;15.00;;;;;13.68;68.74;101641.13;4943997;28;45621;-60
2021/10/28 00:19:21;;;;;;;;;20.50;13.75;;;;;13.68;68.85;101646.44;4943775;28;45368;-60
2021/10/28 00:21:47;;;;;;;;;18.50;16.25;;;;;13.67;68.82;101640.28;4943503;28;45297;-60
2021/10/28 00:24:14;;;;;;;;;14.00;12.00;;;;;13.66;69.18;101632.41;4943797;28;45297;-61
2021/10/28 00:26:43;;;;;;;;;12.00;11.50;;;;;13.66;69.09;101629.75;4943681;28;45242;-61
2021/10/28 00:29:14;;;;;;;;;14.50;12.50;;;;;13.63;68.87;101617.56;4943634;28;45457;-61
2021/10/28 00:31:39;;;;;;;;;16.50;14.00;;;;;13.66;68.77;101625.31;4943656;28;45184;-60
2021/10/28 00:34:07;;;;;;;;;11.25;10.75;;;;;13.66;68.73;101619.16;4944008;28;45305;-60
2021/10/28 00:36:34;;;;;;;;;13.75;12.25;;;;;13.63;69.01;101612.25;4943360;28;45425;-60
2021/10/28 00:39:00;;;;;;;;;14.00;12.00;;;;;13.61;69.15;101613.31;4943027;28;45473;-60
2021/10/28 00:41:26;;;;;;;;;17.25;14.75;;;;;13.59;69.19;101607.25;4943369;28;45420;-60
2021/10/28 00:43:54;;;;;;;;;20.75;12.50;;;;;13.58;69.05;101611.66;4943699;28;45408;-60
2021/10/28 00:46:26;;;;;;;;;14.50;12.75;;;;;13.58;69.03;101602.88;4943600;28;45445;-60
2021/10/28 00:48:52;;;;;;;;;16.75;11.50;;;;;13.56;69.04;101599.47;4943379;28;45510;-60
2021/10/28 00:51:21;;;;;;;;;13.75;11.25;;;;;13.56;69.02;101602.13;4943210;28;45439;-60
2021/10/28 00:53:48;;;;;;;;;11.25;11.00;;;;;13.53;68.94;101597.00;4943437;28;45317;-60
2021/10/28 00:56:14;;;;;;;;;12.00;12.00;;;;;13.52;69.12;101601.47;4943511;28;45350;-61
2021/10/28 00:58:40;;;;;;;;;14.50;12.50;;;;;13.49;69.30;101596.31;4943156;28;45573;-60
2021/10/28 01:01:06;;;;;;;;;12.75;12.50;;;;;13.46;69.25;101599.16;4943085;28;45413;-60
2021/10/28 01:03:36;;;;;;;;;17.50;11.75;;;;;13.45;69.41;101597.47;4943183;28;45270;-60
2021/10/28 01:06:04;;;;;;;;;10.50;10.50;;;;;13.45;69.50;101588.66;4943250;28;45248;-61
2021/10/28 01:08:30;;;;;;;;;16.25;11.50;;;;;13.43;69.31;101588.75;4942879;28;45457;-60
2021/10/28 01:10:56;;;;;;;;;15.50;11.50;;;;;13.44;69.64;101592.25;4943336;28;45322;-60
2021/10/28 01:13:24;;;;;;;;;14.00;12.50;;;;;13.41;69.45;101583.53;4942931;28;45311;-60
2021/10/28 01:15:53;;;;;;;;;15.25;13.00;;;;;13.40;69.64;101576.53;4943493;28;45465;-60
2021/10/28 01:18:19;;;;;;;;;14.50;12.25;;;;;13.39;69.37;101582.78;4942665;28;46236;-60
2021/10/28 01:20:51;;;;;;;;;15.75;13.50;;;;;13.39;69.67;101580.13;4943065;28;45279;-61
2021/10/28 01:23:20;;;;;;;;;13.75;10.00;;;;;13.39;69.65;101568.69;4942804;28;45391;-60
2021/10/28 01:26:04;;;;;;;;;13.25;12.75;;;;;13.38;69.32;101573.13;4943032;28;45309;-61
2021/10/28 01:28:31;;;;;;;;;22.00;13.75;;;;;13.36;69.62;101567.09;4942548;28;45873;-60
2021/10/28 01:31:04;;;;;;;;;16.50;13.00;;;;;13.35;69.55;101561.84;4943007;28;45314;-60
2021/10/28 01:33:30;;;;;;;;;13.25;12.50;;;;;13.31;69.72;101563.00;4942875;28;45324;-60
2021/10/28 01:35:56;;;;;;;;;16.25;11.75;;;;;13.28;69.71;101553.44;4942797;28;45422;-60
2021/10/28 01:38:24;;;;;;;;;10.00;10.00;;;;;13.25;69.91;101552.75;4942515;28;46000;-60
2021/10/28 01:40:58;;;;;;;;;11.50;11.00;;;;;13.22;69.75;101553.78;4942663;28;45247;-60
2021/10/28 01:43:25;;;;;;;;;12.00;9.50;;;;;13.22;69.91;101550.28;4942854;28;45244;-60
2021/10/28 01:45:51;;;;;;;;;17.00;13.00;;;;;13.21;69.93;101553.88;4942762;28;45235;-60
2021/10/28 01:48:18;;;;;;;;;13.00;11.75;;;;;13.20;70.00;101549.53;4942336;28;45444;-59
2021/10/28 01:50:44;;;;;;;;;12.75;11.00;;;;;13.20;69.88;101549.53;4941744;28;45312;-60
2021/10/28 01:53:10;;;;;;;;;13.25;11.25;;;;;13.19;69.85;101539.81;4942247;28;45529;-60
2021/10/28 01:55:35;;;;;;;;;17.75;17.00;;;;;13.19;69.73;101547.78;4942568;28;45329;-60
2021/10/28 01:58:01;;;;;;;;;18.25;13.00;;;;;13.18;69.96;101549.56;4942601;28;45392;-60
2021/10/28 02:00:27;;;;;;;;;14.25;11.00;;;;;13.16;69.76;101546.16;4942395;28;45310;-61
2021/10/28 02:02:54;;;;;;;;;13.00;11.75;;;;;13.13;69.88;101539.25;4942568;28;45374;-60
2021/10/28 02:05:23;;;;;;;;;14.00;12.50;;;;;13.14;69.83;101543.59;4942319;28;45473;-60
2021/10/28 02:07:50;;;;;;;;;13.00;11.75;;;;;13.14;69.86;101538.31;4942324;28;46409;-60
2021/10/28 02:10:18;;;;;;;;;14.00;12.00;;;;;13.13;70.01;101531.31;4942218;28;45326;-60
2021/10/28 02:12:46;;;;;;;;;11.00;10.00;;;;;13.09;69.90;101524.50;4942575;28;45282;-60
2021/10/28 02:15:13;;;;;;;;;14.00;12.25;;;;;13.08;69.88;101521.94;4941137;28;45570;-60
2021/10/28 02:17:40;;;;;;;;;13.75;11.75;;;;;13.07;69.99;101518.44;4942051;28;45401;-60
2021/10/28 02:20:08;;;;;;;;;13.75;12.50;;;;;13.08;69.96;101512.22;4942196;28;45347;-60
2021/10/28 02:22:35;;;;;;;;;12.75;12.75;;;;;13.08;70.07;101514.84;4942284;28;45242;-60
2021/10/28 02:25:01;;;;;;;;;13.75;13.50;;;;;13.09;70.08;101513.91;4941990;28;45568;-60
2021/10/28 02:27:27;;;;;;;;;14.25;12.00;;;;;13.06;69.85;101505.31;4942151;28;46095;-60
2021/10/28 02:29:52;;;;;;;;;14.00;12.75;;;;;13.02;69.85;101501.13;4941984;28;45397;-60
2021/10/28 02:32:19;;;;;;;;;14.00;13.50;;;;;13.00;69.86;101498.56;4942255;28;45358;-60
2021/10/28 02:34:44;;;;;;;;;14.50;11.00;;;;;12.99;70.12;101496.88;4942083;28;45448;-60
2021/10/28 02:37:10;;;;;;;;;15.00;13.00;;;;;12.96;70.00;101499.69;4941729;28;45433;-60
2021/10/28 02:39:36;;;;;;;;;19.25;15.75;;;;;12.94;69.93;101490.97;4941644;28;45350;-61
2021/10/28 02:42:02;;;;;;;;;13.25;13.25;;;;;12.91;70.04;101485.88;4942200;28;45469;-60
2021/10/28 02:44:28;;;;;;;;;14.50;14.00;;;;;12.89;70.12;101487.75;4941897;28;45567;-60
2021/10/28 02:46:54;;;;;;;;;18.75;14.00;;;;;12.86;70.30;101482.63;4941732;28;45442;-60
2021/10/28 02:49:20;;;;;;;;;13.50;13.25;;;;;12.83;70.12;101475.75;4941806;28;45350;-60
2021/10/28 02:51:47;;;;;;;;;16.75;12.75;;;;;12.83;70.10;101472.25;4941913;28;45318;-60
2021/10/28 02:54:20;;;;;;;;;15.75;13.75;;;;;12.83;70.17;101469.59;4941659;28;45462;-60
2021/10/28 02:56:46;;;;;;;;;13.25;12.75;;;;;12.83;70.10;101469.59;4941636;28;45387;-60
2021/10/28 02:59:13;;;;;;;;;17.25;13.25;;;;;12.78;70.11;101469.84;4941663;28;45389;-60
2021/10/28 03:01:42;;;;;;;;;17.75;16.75;;;;;12.73;70.23;101471.91;4941994;28;45387;-60
2021/10/28 03:04:09;;;;;;;;;11.25;10.00;;;;;12.70;70.33;101471.22;4944690;28;45244;-61
2021/10/28 03:06:38;;;;;;;;;20.50;18.00;;;;;12.69;70.44;101466.88;4944665;28;45342;-60
2021/10/28 03:09:04;;;;;;;;;17.75;17.25;;;;;12.68;70.08;101470.47;4944720;28;45350;-59
2021/10/28 03:11:30;;;;;;;;;16.50;13.00;;;;;12.69;70.34;101474.81;4945223;28;45342;-59
2021/10/28 03:13:56;;;;;;;;;19.50;17.25;;;;;12.65;70.10;101468.84;4945076;28;45339;-59
2021/10/28 03:16:34;;;;;;;;;15.75;15.75;;;;;12.63;70.52;101468.06;4944743;28;45310;-60
2021/10/28 03:19:19;;;;;;;;;18.25;14.25;;;;;12.63;70.59;101462.78;4944578;28;45172;-60
2021/10/28 03:27:12;;;;;;;;;17.50;16.50;;;;;12.60;70.30;101465.59;4944507;28;45752;-59
2021/10/28 03:29:38;;;;;;;;;17.75;13.25;;;;;12.58;70.41;101459.56;4944586;28;45406;-60
2021/10/28 03:32:04;;;;;;;;;15.75;15.75;;;;;12.55;70.46;101457.06;4944854;28;45335;-60
2021/10/28 03:34:29;;;;;;;;;17.50;13.25;;;;;12.51;70.31;101451.13;4944646;28;45236;-60
2021/10/28 03:42:43;;;;;;;;;14.75;14.75;;;;;12.55;70.37;101449.16;4944725;28;45389;-60
2021/10/28 04:30:09;;;;;;;;;15.75;12.75;;;;;12.25;70.58;101423.53;4943719;28;45324;-60
2021/10/28 04:32:35;;;;;;;;;21.50;15.50;;;;;12.23;70.75;101416.59;4943829;28;45315;-60
2021/10/28 04:35:01;;;;;;;;;16.75;14.50;;;;;12.22;70.72;101418.38;4943844;28;45406;-59
2021/10/28 04:37:27;;;;;;;;;25.50;17.75;;;;;12.22;70.63;101426.31;4943534;28;45453;-59
2021/10/28 04:39:54;;;;;;;;;22.75;18.75;;;;;12.19;70.75;101426.50;4943317;28;45241;-59
2021/10/28 04:42:20;;;;;;;;;19.25;17.75;;;;;12.20;70.70;101422.91;4943278;28;45430;-59
2021/10/28 04:44:45;;;;;;;;;17.75;17.00;;;;;12.21;70.67;101423.75;4943602;28;45118;-60
2021/10/28 04:47:11;;;;;;;;;20.75;16.50;;;;;12.23;70.81;101427.16;4934230;28;45421;-60
2021/10/28 04:49:37;;;;;;;;;18.00;16.75;;;;;12.24;70.64;101420.94;4942731;28;45255;-59
2021/10/28 04:52:03;;;;;;;;;18.75;16.00;;;;;12.23;70.64;101422.72;4943232;28;45342;-60
2021/10/28 04:54:28;;;;;;;;;19.50;17.50;;;;;12.21;70.60;101418.47;4943348;28;45310;-59
2021/10/28 04:56:54;;;;;;;;;17.75;14.50;;;;;12.19;70.73;101417.72;4943486;28;45473;-60
2021/10/28 04:59:19;;;;;;;;;19.00;15.00;;;;;12.17;70.66;101417.81;4943126;28;45860;-60
2021/10/28 05:01:45;;;;;;;;;20.00;16.75;;;;;12.12;70.63;101417.19;4943371;28;45363;-60
2021/10/28 05:04:11;;;;;;;;;21.00;16.25;;;;;12.11;70.72;101420.78;4943224;28;45307;-60
2021/10/28 05:06:37;;;;;;;;;19.25;16.75;;;;;12.09;70.85;101419.16;4943026;28;45343;-60
2021/10/28 05:09:04;;;;;;;;;17.25;16.50;;;;;12.05;70.95;101410.53;4942800;28;46305;-59
2021/10/28 05:11:29;;;;;;;;;15.50;13.25;;;;;12.05;70.77;101417.63;4943176;28;45401;-59
2021/10/28 05:13:55;;;;;;;;;18.00;15.25;;;;;12.04;71.02;101418.56;4943088;28;45276;-60
2021/10/28 05:16:21;;;;;;;;;21.25;15.50;;;;;12.06;70.94;101414.88;4943246;28;45377;-60
2021/10/28 05:18:46;;;;;;;;;19.50;17.00;;;;;12.04;71.04;101418.56;4942969;28;45231;-59
2021/10/28 05:21:14;;;;;;;;;23.00;18.00;;;;;12.04;71.10;101414.13;4942910;28;45161;-60
2021/10/28 05:23:40;;;;;;;;;21.25;19.50;;;;;12.06;70.91;101414.88;4942811;28;45323;-60
2021/10/28 05:26:07;;;;;;;;;20.25;18.25;;;;;12.09;70.58;101419.16;4942881;28;45346;-59
2021/10/28 05:28:34;;;;;;;;;21.50;18.75;;;;;12.06;70.82;101417.53;4942832;28;46015;-59
2021/10/28 05:31:00;;;;;;;;;21.50;19.00;;;;;12.04;70.66;101424.69;4943014;28;45160;-60
2021/10/28 05:33:26;;;;;;;;;21.50;18.00;;;;;12.02;70.75;101413.38;4943075;28;45476;-59
2021/10/28 05:35:52;;;;;;;;;24.75;15.75;;;;;11.96;70.87;101419.81;4942931;28;45312;-60
2021/10/28 05:38:18;;;;;;;;;22.00;21.00;;;;;11.92;70.84;101423.53;4942275;28;45393;-60
2021/10/28 05:40:44;;;;;;;;;21.50;19.50;;;;;11.92;70.93;101422.69;4942616;28;45291;-59
2021/10/28 05:43:10;;;;;;;;;22.50;20.00;;;;;11.92;70.96;101423.53;4942806;28;45303;-59
2021/10/28 05:45:36;;;;;;;;;21.25;19.50;;;;;11.87;70.62;101422.97;4943029;28;45249;-60
2021/10/28 05:48:03;;;;;;;;;25.75;20.75;;;;;11.83;70.93;101423.19;4942486;28;45271;-60
2021/10/28 05:50:30;;;;;;;;;18.50;16.50;;;;;11.79;71.01;101416.34;4942494;28;45228;-60
2021/10/28 05:52:58;;;;;;;;;26.00;20.75;;;;;11.77;70.95;101418.19;4942601;28;45425;-60
2021/10/28 05:55:24;;;;;;;;;23.00;17.25;;;;;11.73;71.05;101417.53;4942635;28;45316;-60
2021/10/28 05:57:52;;;;;;;;;18.75;17.50;;;;;11.73;71.16;101414.88;4942422;28;46138;-60
2021/10/28 06:00:19;;;;;;;;;22.25;18.75;;;;;11.74;71.24;101414.81;4942373;28;45282;-60
2021/10/28 06:02:44;;;;;;;;;20.50;19.00;;;;;11.77;71.10;101405.88;4942623;28;45242;-60
2021/10/28 06:05:10;;;;;;;;;20.00;16.75;;;;;11.79;71.01;101409.28;4942241;28;45529;-60
2021/10/28 06:07:37;;;;;;;;;21.00;17.25;;;;;11.81;70.91;101411.88;4942268;28;45361;-60
2021/10/28 06:10:03;;;;;;;;;24.50;23.25;;;;;11.81;70.83;101411.88;4942099;28;45414;-60
2021/10/28 06:12:33;;;;;;;;;21.00;17.75;;;;;11.79;70.76;101409.28;4942340;28;45377;-60
2021/10/28 06:15:00;;;;;;;;;22.75;18.75;;;;;11.77;70.62;101410.28;4942148;28;45382;-59
2021/10/28 06:17:38;;;;;;;;;20.50;18.00;;;;;11.73;70.88;101409.59;4942083;28;45311;-60
2021/10/28 06:20:04;;;;;;;;;19.00;18.25;;;;;11.68;70.86;101411.63;4941897;28;45308;-60
2021/10/28 06:22:30;;;;;;;;;16.25;12.25;;;;;11.65;70.65;101409.16;4942049;28;45394;-60
2021/10/28 06:24:57;;;;;;;;;24.25;21.25;;;;;11.60;70.62;101409.41;4941806;28;45522;-60
2021/10/28 06:27:24;;;;;;;;;16.00;9.00;;;;;11.57;70.93;101403.44;4941944;28;46041;-60
2021/10/28 06:29:49;;;;;;;;;15.25;13.25;;;;;11.57;71.21;101416.63;4941903;28;45224;-59
2021/10/28 06:32:15;;;;;;;;;19.25;16.75;;;;;11.57;70.84;101416.63;4942295;28;45292;-59
2021/10/28 06:34:43;;;;;;;;;25.25;19.75;;;;;11.59;71.10;101410.34;4942188;28;45564;-60
2021/10/28 06:37:10;;;;;;;;;18.25;16.50;;;;;11.60;71.09;101409.41;4941865;28;45503;-60
2021/10/28 06:39:36;;;;;;;;;23.75;19.50;;;;;11.61;70.96;101412.88;4945067;28;45366;-60
2021/10/28 06:42:03;;;;;;;;;20.50;18.00;;;;;11.60;70.80;101417.31;4960150;28;45370;-60
2021/10/28 06:44:31;;;;;;;;;15.75;15.75;;;;;11.59;70.77;101420.03;4944181;28;45284;-60
2021/10/28 06:46:57;;;;;;;;;21.25;18.25;;;;;11.59;70.95;101433.22;4945207;28;46030;-59
2021/10/28 06:49:23;;;;;;;;;22.75;17.50;;;;;11.56;70.86;101423.69;4944992;28;45389;-60
2021/10/28 06:51:49;;;;;;;;;25.25;18.25;;;;;11.57;70.85;101421.91;4945150;28;45330;-60
2021/10/28 06:57:00;;;;;;;;;25.50;21.25;;;;;11.53;70.71;101418.56;4945119;28;45325;-59
2021/10/28 07:03:10;;;;;;;;;22.00;20.50;;;;;11.55;70.55;101429.91;4945054;28;45495;-59
2021/10/28 07:05:05;;;;;;;;;23.25;19.50;;;;;11.54;70.92;101428.22;4948185;28;45323;-59
2021/10/28 07:07:34;;;;;;;;;22.25;19.00;;;;;11.56;70.78;101426.34;4932086;28;45399;-60
2021/10/28 07:12:40;;;;;;;;;21.75;21.25;;;;;11.59;70.79;101422.69;4945223;28;45306;-59
2021/10/28 07:15:11;;;;;;;;;24.25;21.25;;;;;11.61;70.53;101411.13;4944816;28;45423;-59
2021/10/28 07:25:23;;;;;;;;;26.75;21.50;;;;;11.73;70.38;101412.25;4944582;28;45273;-60
2021/10/28 07:57:34;;;;;;;;;22.50;18.25;;;;;12.31;68.92;101422.31;4944350;28;45393;-59
2021/10/28 08:13:33;;;;;;;;;24.00;19.75;;;;;12.48;68.30;101416.94;4943905;28;45403;-59
2021/10/28 08:18:48;;;;;;;;;31.25;24.50;;;;;12.60;67.79;101422.47;4943851;28;45243;-61
2021/10/28 08:21:27;;;;;;;;;30.50;27.75;;;;;12.67;67.87;101408.81;4943603;28;46242;-60
2021/10/28 08:29:24;;;;;;;;;30.75;24.25;;;;;12.84;67.45;101394.63;4943831;28;45414;-60
2021/10/28 08:31:53;;;;;;;;;28.00;25.75;;;;;12.91;67.41;101395.13;4943505;28;45458;-60
2021/10/28 08:34:31;;;;;;;;;48.75;37.50;;;;;12.95;67.56;101397.47;4943592;28;45420;-61
2021/10/28 08:37:06;;;;;;;;;25.50;21.75;;;;;13.02;67.22;101392.69;4943367;28;45252;-62
2021/10/28 08:39:33;;;;;;;;;25.00;19.50;;;;;13.07;67.15;101396.78;4943426;28;46422;-61
2021/10/28 08:42:03;;;;;;;;;18.25;16.25;;;;;13.10;66.87;101385.16;4943334;28;45343;-60
2021/10/28 08:44:31;;;;;;;;;22.50;19.75;;;;;13.16;66.73;101392.72;4943285;28;45309;-61
2021/10/28 08:46:58;;;;;;;;;20.50;18.25;;;;;13.20;66.73;101391.66;4943408;28;45295;-60
2021/10/28 08:49:33;;;;;;;;;21.25;17.50;;;;;13.22;66.50;101384.47;4943510;28;45539;-60
2021/10/28 08:57:55;;;;;;;;;25.00;21.50;;;;;13.34;65.97;101370.47;4943397;28;45416;-60
2021/10/28 09:00:26;;;;;;;;;21.50;15.25;;;;;13.42;65.67;101364.72;4943095;28;45430;-59
2021/10/28 09:30:04;;;;;;;;;15.25;12.25;;;;;13.98;64.50;101331.19;4942917;28;45236;-60
2021/10/28 09:32:45;;;;;;;;;19.75;15.50;;;;;14.04;64.39;101332.59;4943057;28;45358;-61
2021/10/28 09:51:20;;;;;;;;;43.75;28.50;;;;;14.42;63.68;101307.13;4942485;28;45581;-60
2021/10/28 09:54:15;;;;;;;;;27.00;19.75;;;;;14.48;63.21;101308.56;4942571;28;45401;-60
2021/10/28 09:59:44;;;;;;;;;25.75;21.50;;;;;14.56;63.09;101311.53;4942456;28;45830;-60
2021/10/28 10:02:47;;;;;;;;;21.25;20.00;;;;;14.60;63.06;101318.31;4942153;28;45256;-60
2021/10/28 10:05:25;;;;;;;;;22.75;20.50;;;;;14.63;63.16;101314.63;4942551;28;45279;-60
2021/10/28 10:07:52;;;;;;;;;22.50;20.25;;;;;14.67;63.27;101324.06;4942511;28;45667;-60
2021/10/28 10:10:20;;;;;;;;;20.75;19.75;;;;;14.70;62.90;101313.28;4942279;28;45275;-61
2021/10/28 10:12:47;;;;;;;;;22.75;21.75;;;;;14.74;62.98;101307.63;4943607;28;45529;-60
2021/10/28 10:15:14;;;;;;;;;22.50;20.75;;;;;14.79;62.91;101307.34;4945725;28;45319;-60
2021/10/28 10:17:53;;;;;;;;;21.25;20.25;;;;;14.84;62.40;101291.94;4945745;28;45171;-60
2021/10/28 10:20:27;;;;;;;;;28.25;21.00;;;;;14.90;62.83;101288.03;4945369;28;46314;-61
2021/10/28 10:23:11;;;;;;;;;27.00;21.00;;;;;14.94;62.45;101282.44;4960496;28;45310;-60
2021/10/28 11:23:01;;;;;;;;;16.00;13.00;;;;;16.18;60.24;101207.09;4944535;28;45235;-61
2021/10/28 12:17:47;;;;;;;;;17.75;16.25;;;;;17.09;59.09;101113.16;4943788;28;45268;-60
2021/10/28 12:25:43;;;;;;;;;13.75;13.25;;;;;17.25;59.16;101094.97;4943784;28;46045;-60
2021/10/28 12:43:30;;;;;;;;;33.50;26.25;;;;;17.35;58.90;101087.94;4943800;28;45385;-62
2021/10/28 12:45:00;;;;;;;;;15.25;11.50;;;;;17.67;57.92;101050.63;4943689;28;45184;-60
2021/10/28 12:50:37;;;;;;;;;10.25;8.75;;;;;17.74;57.71;101043.84;4943343;28;45191;-61
2021/10/28 13:04:16;;;;;;;;;36.75;28.50;;;;;17.99;56.81;101007.09;4943101;28;45244;-60
2021/10/28 13:55:23;;;;;;;;;18.25;9.50;;;;;18.62;54.29;100949.91;4942513;28;45327;-58
2021/10/28 14:00:58;;;;;;;;;10.25;6.75;;;;;18.64;53.21;100942.63;4942588;28;45453;-59
2021/10/28 15:27:37;;;;;;;;;8.00;7.00;;;;;18.77;51.22;100898.84;4945139;28;45241;-59
2021/10/28 15:27:56;;;;;;;;;9.00;8.25;;;;;18.65;51.04;100872.31;4944673;28;45184;-60
2021/10/28 15:33:42;;;;;;;;;6.50;6.00;;;;;18.60;50.83;100863.00;4944619;28;45322;-59
2021/10/28 15:55:37;;;;;;;;;9.00;6.00;;;;;18.36;50.45;100840.22;4922821;28;45560;-61
2021/10/28 16:00:15;;;;;;;;;12.75;11.50;;;;;18.27;50.37;100832.22;4944064;28;45243;-60
2021/10/28 16:22:00;;;;;;;;;16.50;16.50;;;;;17.92;51.72;100812.22;4943877;28;45354;-61
2021/10/28 16:24:29;;;;;;;;;12.75;11.00;;;;;17.85;51.37;100803.06;4943607;28;45466;-61
2021/10/28 16:26:56;;;;;;;;;9.50;7.00;;;;;17.84;51.87;100806.72;4943439;28;45488;-60
2021/10/28 16:29:23;;;;;;;;;7.25;7.25;;;;;17.80;51.62;100800.84;4943700;28;45314;-60
2021/10/28 16:31:49;;;;;;;;;7.75;6.25;;;;;17.76;51.93;100802.06;4944107;28;45308;-60
2021/10/28 16:34:15;;;;;;;;;3.00;0.00;;;;;17.73;51.95;100801.50;4943560;28;46039;-61
2021/10/28 16:36:43;;;;;;;;;5.75;5.50;;;;;17.70;51.78;100796.44;4943255;28;45521;-60
2021/10/28 16:39:11;;;;;;;;;5.50;5.00;;;;;17.67;51.92;100799.34;4943345;28;45328;-61
2021/10/28 16:41:39;;;;;;;;;14.50;13.00;;;;;17.62;51.90;100796.25;4942186;28;45600;-59
2021/10/28 16:44:05;;;;;;;;;13.00;9.00;;;;;17.58;52.01;100798.34;4943211;28;46483;-58
2021/10/28 16:46:32;;;;;;;;;9.25;7.00;;;;;17.54;52.12;100789.78;4939187;28;45366;-60
2021/10/28 16:48:59;;;;;;;;;11.50;8.25;;;;;17.52;52.20;100789.06;4938180;28;45295;-59
2021/10/28 16:51:25;;;;;;;;;10.00;8.00;;;;;17.50;52.39;100787.50;4943252;28;45438;-59
2021/10/28 16:53:51;;;;;;;;;8.00;6.00;;;;;17.47;52.59;100790.47;4942992;28;46327;-60
2021/10/28 16:56:17;;;;;;;;;7.75;6.00;;;;;17.43;52.88;100789.88;4943373;28;45461;-60
2021/10/28 16:58:43;;;;;;;;;8.75;8.00;;;;;17.41;52.52;100797.16;4943345;28;45290;-59
2021/10/28 17:01:09;;;;;;;;;6.00;6.00;;;;;17.37;52.41;100790.38;4943638;28;45244;-60
2021/10/28 17:03:36;;;;;;;;;17.00;15.50;;;;;17.34;52.74;100784.50;4942922;28;45268;-59
2021/10/28 17:06:02;;;;;;;;;11.75;8.75;;;;;17.29;52.61;100788.38;4943042;28;45277;-59
2021/10/28 17:08:29;;;;;;;;;7.75;7.50;;;;;17.27;52.50;100789.50;4943157;28;45322;-60
2021/10/28 17:10:55;;;;;;;;;10.25;7.25;;;;;17.25;52.86;100794.97;4943276;28;45492;-60
2021/10/28 17:13:21;;;;;;;;;6.50;6.25;;;;;17.23;53.00;100798.75;4943058;28;46397;-59
2021/10/28 17:15:47;;;;;;;;;9.50;8.00;;;;;17.19;52.90;100795.50;4943079;28;45327;-59
2021/10/28 17:18:12;;;;;;;;;6.75;6.75;;;;;17.17;53.08;100794.78;4942880;28;45347;-60
2021/10/28 17:20:38;;;;;;;;;9.00;7.25;;;;;17.14;53.03;100800.41;4941730;28;45578;-60
2021/10/28 17:23:05;;;;;;;;;13.50;9.50;;;;;17.12;53.21;100793.50;4942529;28;45516;-59
2021/10/28 17:25:37;;;;;;;;;12.75;10.25;;;;;17.10;53.29;100798.94;4942943;28;45323;-60
2021/10/28 17:28:03;;;;;;;;;10.75;9.50;;;;;17.09;53.30;100791.94;4942749;28;45369;-60
2021/10/28 17:30:28;;;;;;;;;7.00;7.00;;;;;17.08;53.40;100792.94;4943172;28;45383;-60
2021/10/28 17:32:54;;;;;;;;;8.50;8.00;;;;;17.04;53.39;100796.81;4942637;28;45435;-60
2021/10/28 17:35:20;;;;;;;;;11.00;7.75;;;;;17.01;53.54;100797.09;4942837;28;45200;-60
2021/10/28 17:37:45;;;;;;;;;12.75;9.75;;;;;16.99;53.54;100799.88;4942746;28;45249;-61
2021/10/28 17:40:11;;;;;;;;;11.25;10.25;;;;;16.99;53.58;100791.91;4942589;28;45248;-60
2021/10/28 17:42:38;;;;;;;;;13.00;10.25;;;;;16.99;53.61;100789.22;4942624;28;46474;-61
2021/10/28 17:45:05;;;;;;;;;11.75;10.25;;;;;16.95;53.50;100787.78;4942693;28;45356;-60
2021/10/28 17:47:31;;;;;;;;;18.25;14.50;;;;;16.96;54.19;100796.63;4942444;28;45362;-61
2021/10/28 17:49:56;;;;;;;;;21.25;19.50;;;;;16.92;53.93;100790.72;4942461;28;45323;-60
2021/10/28 17:52:22;;;;;;;;;24.75;17.25;;;;;16.91;54.06;100794.38;4942311;28;45777;-61
2021/10/28 17:54:48;;;;;;;;;17.75;16.50;;;;;16.88;54.27;100791.94;4942535;28;45348;-61
2021/10/28 17:57:14;;;;;;;;;18.00;15.00;;;;;16.88;54.25;100793.75;4942623;28;45460;-61
2021/10/28 17:59:42;;;;;;;;;16.50;13.25;;;;;16.86;54.39;100795.72;4942644;28;45234;-61
2021/10/28 18:02:10;;;;;;;;;14.25;11.75;;;;;16.83;54.39;100788.00;4942770;28;46307;-59
2021/10/28 18:04:36;;;;;;;;;14.00;13.00;;;;;16.82;54.45;100789.78;4942311;28;45302;-61
2021/10/28 18:07:02;;;;;;;;;16.25;12.00;;;;;16.81;54.60;100782.78;4942431;28;45342;-61
2021/10/28 18:09:27;;;;;;;;;12.25;10.25;;;;;16.80;54.59;100785.59;4942592;28;45604;-61
2021/10/28 18:11:57;;;;;;;;;12.25;10.75;;;;;16.79;54.58;100782.09;4942267;28;45527;-60
2021/10/28 18:14:27;;;;;;;;;11.50;11.50;;;;;16.79;54.64;100784.75;4942700;28;45470;-61
2021/10/28 18:16:53;;;;;;;;;13.00;10.50;;;;;16.78;54.71;100783.06;4942370;28;45324;-59
2021/10/28 18:19:19;;;;;;;;;14.50;9.00;;;;;16.78;54.63;100787.53;4942304;28;45339;-59
2021/10/28 18:21:47;;;;;;;;;11.00;9.00;;;;;16.77;54.90;100796.50;4941871;28;45739;-60
2021/10/28 18:24:14;;;;;;;;;10.25;10.25;;;;;16.74;54.98;100789.59;4942151;28;45254;-60
2021/10/28 18:26:40;;;;;;;;;13.25;10.50;;;;;16.73;54.83;100782.59;4941929;28;45363;-60
2021/10/28 18:29:06;;;;;;;;;13.50;12.75;;;;;16.73;54.91;100777.28;4942384;28;45343;-60
2021/10/28 18:31:32;;;;;;;;;11.50;11.00;;;;;16.72;54.98;100781.75;4941786;28;45924;-61
2021/10/28 18:33:59;;;;;;;;;11.25;11.25;;;;;16.71;55.11;100774.75;4943553;28;45344;-60
2021/10/28 18:36:26;;;;;;;;;13.25;11.00;;;;;16.68;55.12;100780.31;4945256;28;45240;-61
2021/10/28 18:38:52;;;;;;;;;11.25;11.25;;;;;16.65;55.18;100775.22;4944166;28;45554;-61
2021/10/28 18:41:19;;;;;;;;;13.00;13.00;;;;;16.64;55.27;100772.72;4945225;28;45612;-61
2021/10/28 18:43:46;;;;;;;;;14.75;13.75;;;;;16.61;55.32;100771.16;4945471;28;45342;-61
2021/10/28 18:46:14;;;;;;;;;17.25;17.00;;;;;16.59;55.36;100772.25;4943582;28;45275;-61
2021/10/28 18:48:39;;;;;;;;;14.50;12.25;;;;;16.57;55.41;100763.56;4937030;28;45402;-59
2021/10/28 18:51:05;;;;;;;;;18.50;13.25;;;;;16.58;55.58;100762.56;4945032;28;45325;-60
2021/10/28 18:53:38;;;;;;;;;19.25;14.75;;;;;16.57;55.54;100760.91;4945006;28;45291;-60
2021/10/28 18:56:04;;;;;;;;;16.00;14.75;;;;;16.55;55.35;100757.53;4945344;28;45322;-59
2021/10/28 18:58:30;;;;;;;;;20.00;15.25;;;;;16.54;55.66;100751.38;4945030;28;45657;-60
2021/10/28 19:00:56;;;;;;;;;16.25;13.00;;;;;16.53;55.70;100754.16;4945005;28;45203;-59
2021/10/28 19:03:21;;;;;;;;;15.50;11.75;;;;;16.53;55.72;100756.81;4945058;28;45289;-60
2021/10/28 19:05:47;;;;;;;;;12.50;11.00;;;;;16.50;55.80;100757.06;4944939;28;45402;-60
2021/10/28 19:08:13;;;;;;;;;14.00;10.25;;;;;16.46;55.92;100744.03;4945014;28;45160;-61
2021/10/28 19:10:39;;;;;;;;;14.25;11.75;;;;;16.45;56.08;100744.16;4944849;28;45233;-59
2021/10/28 19:13:04;;;;;;;;;15.25;11.25;;;;;16.45;56.03;100741.50;4944794;28;45287;-60
2021/10/28 19:15:30;;;;;;;;;15.75;15.25;;;;;16.42;56.21;100745.25;4945003;28;45234;-60
2021/10/28 19:17:56;;;;;;;;;12.00;10.75;;;;;16.43;55.97;100740.78;4945150;28;45293;-59
2021/10/28 19:20:22;;;;;;;;;18.75;15.50;;;;;16.41;55.95;100735.59;4943292;28;45377;-60
2021/10/28 19:22:48;;;;;;;;;18.75;13.50;;;;;16.43;56.17;100735.44;4944661;28;45358;-59
2021/10/28 19:25:14;;;;;;;;;13.00;13.00;;;;;16.44;56.13;100734.50;4944755;28;45235;-60
2021/10/28 19:27:40;;;;;;;;;14.50;9.25;;;;;16.44;55.96;100738.00;4940358;28;45576;-60
2021/10/28 19:30:57;;;;;;;;;14.50;14.00;;;;;16.43;56.15;100733.66;4943531;28;45274;-60
2021/10/28 19:32:59;;;;;;;;;17.00;14.25;;;;;16.41;56.07;100727.63;4940733;28;45357;-60
2021/10/28 19:35:27;;;;;;;;;14.50;14.00;;;;;16.40;56.13;100720.63;4943260;28;45247;-59
2021/10/28 19:48:12;;;;;;;;;14.00;10.00;;;;;16.31;56.44;100716.06;4934348;28;45369;-60
2021/10/28 19:50:38;;;;;;;;;16.50;14.25;;;;;16.29;56.39;100711.88;4944249;28;45434;-60
2021/10/28 19:53:04;;;;;;;;;18.75;14.00;;;;;16.25;56.50;100699.78;4944143;28;45434;-60
2021/10/28 19:55:30;;;;;;;;;10.00;9.25;;;;;16.20;56.52;100705.50;4944458;28;45394;-60